ADDS METAR Data INFO
IDs: Format: Raw Decoded Include TAF

Data at: 0249 UTC 21 Jan 2018

KUYF 210235Z AUTO 20009G15KT 10SM SCT016 OVC022 05/00 A3009 RMK AO2
KUYF 210215Z AUTO 19007KT 10SM OVC024 04/01 A3009 RMK AO2
KUYF 210155Z AUTO 19005KT 10SM OVC028 03/01 A3009 RMK AO2
KUYF 210135Z AUTO 19006KT 10SM OVC026 03/01 A3009 RMK AO2
KUYF 210115Z AUTO 21005KT 10SM OVC026 03/00 A3009 RMK AO2
KUYF 210055Z AUTO 19005KT 10SM OVC024 04/00 A3008 RMK AO2
KUYF 210035Z AUTO 20006KT 10SM OVC024 04/00 A3009 RMK AO2
KUYF 210015Z AUTO 19007KT 10SM OVC024 04/01 A3008 RMK AO2
KUYF 202355Z AUTO 19006KT 10SM OVC024 03/01 A3008 RMK AO2
KUYF 202335Z AUTO 19007KT 10SM OVC026 04/01 A3008 RMK AO2
KUYF 202315Z AUTO 21006KT 10SM OVC026 04/01 A3007 RMK AO2
KUYF 202255Z AUTO 20007KT 10SM OVC024 04/00 A3007 RMK AO2
KUYF 202235Z AUTO 20007KT 10SM OVC024 04/00 A3007 RMK AO2
KUYF 202215Z AUTO 20006KT 10SM BKN028 05/00 A3006 RMK AO2
KUYF 202155Z AUTO 20007KT 10SM SCT028 05/00 A3006 RMK AO2
KUYF 202135Z AUTO 20008KT 10SM CLR 05/00 A3005 RMK AO2
KUYF 202115Z AUTO 20008KT 10SM CLR 05/00 A3005 RMK AO2
KUYF 202055Z AUTO 19009KT 10SM CLR 05/00 A3004 RMK AO2
KUYF 202035Z AUTO 20011KT 10SM CLR 05/M01 A3003 RMK AO2
KUYF 202015Z AUTO 20010KT 10SM CLR 05/M01 A3004 RMK AO2
KUYF 201955Z AUTO 20008KT 10SM CLR 05/M01 A3004 RMK AO2
KUYF 201935Z AUTO 20009KT 10SM CLR 05/M01 A3004 RMK AO2
KUYF 201915Z AUTO 21009KT 10SM CLR 05/M01 A3004 RMK AO2
KUYF 201855Z AUTO 21008KT 10SM CLR 05/M01 A3004 RMK AO2
KUYF 201835Z AUTO 22010KT 10SM CLR 05/M01 A3005 RMK AO2
KUYF 201815Z AUTO 21012KT 10SM CLR 05/M01 A3004 RMK AO2
KUYF 201755Z AUTO 21011KT 10SM CLR 04/M01 A3005 RMK AO2
KUYF 201735Z AUTO 22011KT 10SM CLR 03/M01 A3005 RMK AO2
KUYF 201715Z AUTO 22011KT 10SM CLR 03/M01 A3005 RMK AO2
KUYF 201655Z AUTO 22012KT 10SM CLR 03/M02 A3006 RMK AO2
KUYF 201635Z AUTO 22012KT 10SM CLR 03/M02 A3007 RMK AO2
KUYF 201615Z AUTO 22014KT 10SM CLR 03/M02 A3007 RMK AO2
KUYF 201555Z AUTO 22013KT 10SM CLR 02/M02 A3007 RMK AO2
KUYF 201535Z AUTO 22012KT 10SM CLR 02/M02 A3007 RMK AO2
KUYF 201515Z AUTO 22012KT 10SM CLR 02/M03 A3006 RMK AO2
KUYF 201455Z AUTO 22013KT 10SM CLR 02/M03 A3005 RMK AO2
KUYF 201435Z AUTO 21013KT 10SM CLR 01/M03 A3005 RMK AO2
KUYF 201415Z AUTO 21012KT 10SM CLR 01/M03 A3005 RMK AO2
KUYF 201355Z AUTO 21011KT 10SM CLR 01/M03 A3004 RMK AO2
KUYF 201335Z AUTO 21011KT 10SM CLR 01/M03 A3003 RMK AO2
KUYF 201315Z AUTO 21012KT 10SM CLR 01/M03 A3002 RMK AO2
KUYF 201255Z AUTO 21011KT 10SM CLR 00/M03 A3002 RMK AO2
KUYF 201235Z AUTO 21013KT 10SM CLR 00/M03 A3001 RMK AO2
KUYF 201215Z AUTO 21012KT 10SM CLR 00/M04 A3001 RMK AO2
KUYF 201155Z AUTO 21010KT 10SM CLR 00/M04 A3001 RMK AO2
KUYF 201135Z AUTO 21012KT 10SM CLR 00/M03 A3000 RMK AO2
KUYF 201115Z AUTO 21012KT 10SM CLR 00/M04 A3000 RMK AO2
KUYF 201055Z AUTO 21011KT 10SM CLR 00/M04 A3000 RMK AO2
KUYF 201035Z AUTO 21010KT 10SM CLR 00/M04 A2999 RMK AO2
KUYF 201015Z AUTO 21011KT 10SM CLR 00/M04 A2998 RMK AO2
KUYF 200955Z AUTO 22011KT 10SM CLR 00/M04 A2998 RMK AO2
KUYF 200935Z AUTO 22012KT 10SM CLR 00/M04 A2998 RMK AO2
KUYF 200915Z AUTO 23011KT 10SM CLR 00/M04 A2999 RMK AO2
KUYF 200855Z AUTO 23011KT 10SM CLR 00/M04 A2998 RMK AO2
KUYF 200835Z AUTO 22011KT 10SM CLR 00/M05 A2997 RMK AO2
KUYF 200815Z AUTO 22011KT 10SM CLR 00/M05 A2996 RMK AO2
KUYF 200755Z AUTO 21013KT 10SM CLR 00/M05 A2996 RMK AO2
KUYF 200735Z AUTO 21013KT 10SM CLR 00/M05 A2995 RMK AO2
KUYF 200715Z AUTO 21014KT 10SM CLR 00/M05 A2995 RMK AO2
KUYF 200655Z AUTO 21014KT 10SM CLR 00/M05 A2995 RMK AO2
KUYF 200635Z AUTO 21015KT 10SM CLR 00/M05 A2995 RMK AO2
KUYF 200615Z AUTO 22015KT 10SM CLR 00/M05 A2995 RMK AO2
KUYF 200555Z AUTO 21014KT 10SM CLR 00/M05 A2995 RMK AO2
KUYF 200535Z AUTO 21015KT 10SM CLR 00/M05 A2995 RMK AO2
KUYF 200515Z AUTO 21015KT 10SM CLR 00/M05 A2995 RMK AO2
KUYF 200455Z AUTO 22015KT 10SM CLR 00/M05 A2996 RMK AO2
KUYF 200435Z AUTO 22015KT 10SM CLR 00/M05 A2997 RMK AO2
KUYF 200415Z AUTO 22015KT 10SM CLR 00/M06 A2996 RMK AO2
KUYF 200355Z AUTO 22016KT 10SM CLR 00/M06 A2996 RMK AO2
KUYF 200335Z AUTO 22015KT 10SM CLR 00/M06 A2997 RMK AO2
KUYF 200315Z AUTO 22014KT 10SM CLR 00/M06 A2997 RMK AO2
KUYF 200255Z AUTO 22016KT 10SM CLR 00/M06 A2997 RMK AO2
KUYF 200235Z AUTO 21016KT 10SM CLR 00/M06 A2997 RMK AO2
KUYF 200215Z AUTO 21018G23KT 10SM CLR 00/M07 A2997 RMK AO2
KUYF 200155Z AUTO 21018G23KT 10SM CLR 00/M07 A2997 RMK AO2
KUYF 200135Z AUTO 21016KT 10SM CLR 00/M07 A2998 RMK AO2
KUYF 200115Z AUTO 20017G21KT 10SM CLR 00/M07 A2998 RMK AO2
KUYF 200055Z AUTO 20017KT 10SM CLR 00/M07 A2998 RMK AO2
KUYF 200035Z AUTO 20016KT 10SM CLR 00/M07 A2998 RMK AO2
KUYF 200015Z AUTO 20016KT 10SM CLR 00/M07 A2998 RMK AO2
KUYF 192355Z AUTO 20015KT 10SM CLR 01/M07 A2999 RMK AO2
KUYF 192335Z AUTO 20015KT 10SM CLR 01/M07 A3000 RMK AO2
KUYF 192315Z AUTO 19015G20KT 10SM CLR 00/M06 A2999 RMK AO2
KUYF 192255Z AUTO 19014KT 10SM CLR 00/M06 A3000 RMK AO2
KUYF 192235Z AUTO 19013KT 10SM CLR 00/M06 A3001 RMK AO2
KUYF 192215Z AUTO 20012KT 10SM CLR 01/M06 A3001 RMK AO2
KUYF 192155Z AUTO 19012KT 10SM CLR 01/M06 A3001 RMK AO2
KUYF 192135Z AUTO 20013KT 10SM CLR 01/M06 A3001 RMK AO2
KUYF 192115Z AUTO 19013KT 10SM CLR 01/M06 A3001 RMK AO2
KUYF 192055Z AUTO 19013KT 10SM CLR 01/M06 A3001 RMK AO2
KUYF 192035Z AUTO 20014KT 10SM CLR 01/M06 A3001 RMK AO2
KUYF 192015Z AUTO 19014KT 10SM CLR 00/M06 A3002 RMK AO2
KUYF 191955Z AUTO 20013KT 10SM CLR 00/M06 A3002 RMK AO2
KUYF 191935Z AUTO 20015KT 10SM CLR 00/M07 A3002 RMK AO2
KUYF 191915Z AUTO 19015G18KT 10SM CLR 00/M06 A3002 RMK AO2
KUYF 191855Z AUTO 19012KT 10SM CLR 00/M06 A3004 RMK AO2
KUYF 191835Z AUTO 21012G17KT 10SM CLR 00/M07 A3005 RMK AO2
KUYF 191815Z AUTO 20012KT 10SM CLR 00/M07 A3006 RMK AO2
KUYF 191755Z AUTO 21014G19KT 10SM CLR M01/M07 A3007 RMK AO2
KUYF 191735Z AUTO 21013KT 10SM CLR M01/M08 A3007 RMK AO2
KUYF 191715Z AUTO 21014G17KT 10SM CLR M01/M08 A3008 RMK AO2
KUYF 191655Z AUTO 20011KT 10SM CLR M01/M08 A3008 RMK AO2
KUYF 191635Z AUTO 21011KT 10SM CLR M02/M08 A3009 RMK AO2
KUYF 191615Z AUTO 21013KT 10SM CLR M02/M09 A3010 RMK AO2
KUYF 191555Z AUTO 21013KT 10SM CLR M03/M09 A3010 RMK AO2
KUYF 191535Z AUTO 21013KT 10SM CLR M03/M10 A3010 RMK AO2
KUYF 191515Z AUTO 21013KT 10SM CLR M04/M10 A3010 RMK AO2
KUYF 191455Z AUTO 21013G20KT 10SM CLR M05/M10 A3010 RMK AO2